首页
METAR-TAF:

METAR-TAF

机场 :

羅馬-菲烏米奇諾機場

罗马菲乌米奇诺, 意大利

纬度: 41-48N, 经度: 012-14E, 海拔: 2米

当前天气观测

该预报发布于22分钟前的09:50 UTC
风速4节,风向多变
温度 28°C
湿度 51%
气压 1017 hPa
能见度10公里或以上
1500米以下无云,无积雨云

METAR: LIRF 190950Z VRB04KT CAVOK 28/17 Q1017 NOSIG

时间: 12:12 (10:12 UTC)

预报

该预报发布于5小时和12分钟前的05:00 UTC
预报有效从19日的 06点(UTC)到 20日的 12点(UTC)
风速5节,风向多变
能见度10公里或以上
散云层高于5000英尺
成为
从 19日的 08点(UTC)到 19日的 10点(UTC)
风速10节,风向西
成为
从 19日的 16点(UTC)到 19日的 18点(UTC)
风速5节,风向多变
成为
从 20日的 08点(UTC)到 20日的 10点(UTC)
风速10节,风向西转西南

TAF: LIRF 190500Z 1906/2012 VRB05KT 9999 SCT050 BECMG 1908/1910 26010KT BECMG 1916/1918 VRB05KT BECMG 2008/2010 25010KT

超过4000个机场的气象观测和天气预报(METAR&TAF报告)。

可查询的气象台以黄色和红色小点在地图上表示。

将鼠标移到小点上方,可查看气象台名称。

然后点击查看天气观测和预报。

如需切换地图:点击带黑十字的绿色按钮放大地图;点击带横线的绿色按钮缩小地图;或者点击绿色箭头查看邻近地区的地图。


METAR-TAF: